sensor_id;sensor_type;location;lat;lon;timestamp;temperature;humidity
4695;DHT22;2361;49.540;8.390;2023-11-19T00:00:51;9.20;99.90
4695;DHT22;2361;49.540;8.390;2023-11-19T00:03:15;9.20;99.90
4695;DHT22;2361;49.540;8.390;2023-11-19T00:05:36;9.20;99.90
4695;DHT22;2361;49.540;8.390;2023-11-19T00:07:58;9.20;99.90
4695;DHT22;2361;49.540;8.390;2023-11-19T00:10:21;9.30;99.90
4695;DHT22;2361;49.540;8.390;2023-11-19T00:12:45;9.30;99.90
4695;DHT22;2361;49.540;8.390;2023-11-19T00:15:08;9.40;99.90
4695;DHT22;2361;49.540;8.390;2023-11-19T00:17:33;9.40;99.90
4695;DHT22;2361;49.540;8.390;2023-11-19T00:19:55;9.40;99.90
4695;DHT22;2361;49.540;8.390;2023-11-19T00:22:17;9.40;99.90
4695;DHT22;2361;49.540;8.390;2023-11-19T00:24:39;9.40;99.90
4695;DHT22;2361;49.540;8.390;2023-11-19T00:27:01;9.40;99.90
4695;DHT22;2361;49.540;8.390;2023-11-19T00:29:23;9.40;99.90
4695;DHT22;2361;49.540;8.390;2023-11-19T00:31:45;9.50;99.90
4695;DHT22;2361;49.540;8.390;2023-11-19T00:34:07;9.50;99.90
4695;DHT22;2361;49.540;8.390;2023-11-19T00:36:29;9.40;99.90
4695;DHT22;2361;49.540;8.390;2023-11-19T00:38:54;9.40;99.90
4695;DHT22;2361;49.540;8.390;2023-11-19T00:41:16;9.40;99.90
4695;DHT22;2361;49.540;8.390;2023-11-19T00:43:38;9.40;99.90
4695;DHT22;2361;49.540;8.390;2023-11-19T00:46:00;9.50;99.90
4695;DHT22;2361;49.540;8.390;2023-11-19T00:48:24;9.50;99.90
4695;DHT22;2361;49.540;8.390;2023-11-19T00:50:46;9.60;99.90
4695;DHT22;2361;49.540;8.390;2023-11-19T00:53:08;9.60;99.90
4695;DHT22;2361;49.540;8.390;2023-11-19T00:55:29;9.60;99.90
4695;DHT22;2361;49.540;8.390;2023-11-19T00:57:51;9.60;99.90
4695;DHT22;2361;49.540;8.390;2023-11-19T01:00:14;9.70;99.90
4695;DHT22;2361;49.540;8.390;2023-11-19T01:02:48;9.70;99.90
4695;DHT22;2361;49.540;8.390;2023-11-19T01:05:13;9.70;99.90
4695;DHT22;2361;49.540;8.390;2023-11-19T01:07:41;9.80;99.90
4695;DHT22;2361;49.540;8.390;2023-11-19T01:10:05;9.80;99.90
4695;DHT22;2361;49.540;8.390;2023-11-19T01:12:29;9.70;99.90
4695;DHT22;2361;49.540;8.390;2023-11-19T01:14:52;9.70;99.90
4695;DHT22;2361;49.540;8.390;2023-11-19T01:17:14;9.60;99.90
4695;DHT22;2361;49.540;8.390;2023-11-19T01:19:37;9.60;99.90
4695;DHT22;2361;49.540;8.390;2023-11-19T01:21:59;9.70;99.90
4695;DHT22;2361;49.540;8.390;2023-11-19T01:24:21;9.60;99.90
4695;DHT22;2361;49.540;8.390;2023-11-19T01:26:44;9.60;99.90
4695;DHT22;2361;49.540;8.390;2023-11-19T01:29:08;9.60;99.90
4695;DHT22;2361;49.540;8.390;2023-11-19T01:31:30;9.60;99.90
4695;DHT22;2361;49.540;8.390;2023-11-19T01:33:55;9.60;99.90
4695;DHT22;2361;49.540;8.390;2023-11-19T01:36:17;9.60;99.90
4695;DHT22;2361;49.540;8.390;2023-11-19T01:38:39;9.60;99.90
4695;DHT22;2361;49.540;8.390;2023-11-19T01:41:03;9.70;99.90
4695;DHT22;2361;49.540;8.390;2023-11-19T01:43:39;9.70;99.90
4695;DHT22;2361;49.540;8.390;2023-11-19T01:46:04;9.70;99.90
4695;DHT22;2361;49.540;8.390;2023-11-19T01:48:27;9.80;99.90
4695;DHT22;2361;49.540;8.390;2023-11-19T01:50:49;9.80;99.90
4695;DHT22;2361;49.540;8.390;2023-11-19T01:53:23;9.70;99.90
4695;DHT22;2361;49.540;8.390;2023-11-19T01:55:47;9.70;99.90
4695;DHT22;2361;49.540;8.390;2023-11-19T01:58:09;9.70;99.90
4695;DHT22;2361;49.540;8.390;2023-11-19T02:00:31;9.80;99.90
4695;DHT22;2361;49.540;8.390;2023-11-19T02:02:55;9.80;99.90
4695;DHT22;2361;49.540;8.390;2023-11-19T02:05:18;9.80;99.90
4695;DHT22;2361;49.540;8.390;2023-11-19T02:07:40;9.90;99.90
4695;DHT22;2361;49.540;8.390;2023-11-19T02:10:02;9.90;99.90
4695;DHT22;2361;49.540;8.390;2023-11-19T02:12:27;9.90;99.90
4695;DHT22;2361;49.540;8.390;2023-11-19T02:14:55;9.90;99.90
4695;DHT22;2361;49.540;8.390;2023-11-19T02:17:30;9.90;99.90
4695;DHT22;2361;49.540;8.390;2023-11-19T02:19:56;9.90;99.90
4695;DHT22;2361;49.540;8.390;2023-11-19T02:22:18;9.90;99.90
4695;DHT22;2361;49.540;8.390;2023-11-19T02:24:40;9.90;99.90
4695;DHT22;2361;49.540;8.390;2023-11-19T02:27:13;9.90;99.90
4695;DHT22;2361;49.540;8.390;2023-11-19T02:29:38;9.90;99.90
4695;DHT22;2361;49.540;8.390;2023-11-19T02:32:00;9.80;99.90
4695;DHT22;2361;49.540;8.390;2023-11-19T02:34:25;9.80;99.90
4695;DHT22;2361;49.540;8.390;2023-11-19T02:36:47;9.80;99.90
4695;DHT22;2361;49.540;8.390;2023-11-19T02:39:09;9.80;99.90
4695;DHT22;2361;49.540;8.390;2023-11-19T02:41:33;9.90;99.90
4695;DHT22;2361;49.540;8.390;2023-11-19T02:43:55;9.90;99.90
4695;DHT22;2361;49.540;8.390;2023-11-19T02:46:17;9.90;99.90
4695;DHT22;2361;49.540;8.390;2023-11-19T02:48:41;10.00;99.90
4695;DHT22;2361;49.540;8.390;2023-11-19T02:51:05;9.90;99.90
4695;DHT22;2361;49.540;8.390;2023-11-19T02:53:31;10.00;99.90
4695;DHT22;2361;49.540;8.390;2023-11-19T02:55:53;10.10;99.90
4695;DHT22;2361;49.540;8.390;2023-11-19T02:58:16;10.10;99.90
4695;DHT22;2361;49.540;8.390;2023-11-19T03:00:42;10.10;99.90
4695;DHT22;2361;49.540;8.390;2023-11-19T03:03:10;10.10;99.90
4695;DHT22;2361;49.540;8.390;2023-11-19T03:05:41;10.10;99.90
4695;DHT22;2361;49.540;8.390;2023-11-19T03:08:05;10.10;99.90
4695;DHT22;2361;49.540;8.390;2023-11-19T03:10:28;10.10;99.90
4695;DHT22;2361;49.540;8.390;2023-11-19T03:12:51;10.10;99.90
4695;DHT22;2361;49.540;8.390;2023-11-19T03:15:13;10.10;99.90
4695;DHT22;2361;49.540;8.390;2023-11-19T03:17:39;10.20;99.90
4695;DHT22;2361;49.540;8.390;2023-11-19T03:20:01;10.20;99.90
4695;DHT22;2361;49.540;8.390;2023-11-19T03:22:23;10.20;99.90
4695;DHT22;2361;49.540;8.390;2023-11-19T03:24:46;10.20;99.90
4695;DHT22;2361;49.540;8.390;2023-11-19T03:27:07;10.20;99.90
4695;DHT22;2361;49.540;8.390;2023-11-19T03:29:29;10.20;99.90
4695;DHT22;2361;49.540;8.390;2023-11-19T03:31:51;10.20;99.90
4695;DHT22;2361;49.540;8.390;2023-11-19T03:34:13;10.20;99.90
4695;DHT22;2361;49.540;8.390;2023-11-19T03:36:35;10.20;99.90
4695;DHT22;2361;49.540;8.390;2023-11-19T03:38:57;10.30;99.90
4695;DHT22;2361;49.540;8.390;2023-11-19T03:41:19;10.30;99.90
4695;DHT22;2361;49.540;8.390;2023-11-19T03:43:41;10.30;99.90
4695;DHT22;2361;49.540;8.390;2023-11-19T03:46:03;10.20;99.90
4695;DHT22;2361;49.540;8.390;2023-11-19T03:48:26;10.20;99.90
4695;DHT22;2361;49.540;8.390;2023-11-19T03:50:48;10.30;99.90
4695;DHT22;2361;49.540;8.390;2023-11-19T03:53:12;10.30;99.90
4695;DHT22;2361;49.540;8.390;2023-11-19T03:55:34;10.30;99.90
4695;DHT22;2361;49.540;8.390;2023-11-19T03:57:55;10.40;99.90
4695;DHT22;2361;49.540;8.390;2023-11-19T04:00:18;10.40;99.90
4695;DHT22;2361;49.540;8.390;2023-11-19T04:02:42;10.50;99.90
4695;DHT22;2361;49.540;8.390;2023-11-19T04:05:04;10.50;99.90
4695;DHT22;2361;49.540;8.390;2023-11-19T04:07:27;10.50;99.90
4695;DHT22;2361;49.540;8.390;2023-11-19T04:09:49;10.50;99.90
4695;DHT22;2361;49.540;8.390;2023-11-19T04:12:11;10.50;99.90
4695;DHT22;2361;49.540;8.390;2023-11-19T04:14:32;10.50;99.90
4695;DHT22;2361;49.540;8.390;2023-11-19T04:16:54;10.50;99.90
4695;DHT22;2361;49.540;8.390;2023-11-19T04:19:17;10.60;99.90
4695;DHT22;2361;49.540;8.390;2023-11-19T04:21:40;10.50;99.90
4695;DHT22;2361;49.540;8.390;2023-11-19T04:24:03;10.50;99.90
4695;DHT22;2361;49.540;8.390;2023-11-19T04:26:25;10.50;99.90
4695;DHT22;2361;49.540;8.390;2023-11-19T04:28:47;10.50;99.90
4695;DHT22;2361;49.540;8.390;2023-11-19T04:31:10;10.50;99.90
4695;DHT22;2361;49.540;8.390;2023-11-19T04:33:32;10.50;99.90
4695;DHT22;2361;49.540;8.390;2023-11-19T04:35:54;10.60;99.90
4695;DHT22;2361;49.540;8.390;2023-11-19T04:38:16;10.70;99.90
4695;DHT22;2361;49.540;8.390;2023-11-19T04:40:38;10.70;99.90
4695;DHT22;2361;49.540;8.390;2023-11-19T04:43:00;10.60;99.90
4695;DHT22;2361;49.540;8.390;2023-11-19T04:45:22;10.60;99.90
4695;DHT22;2361;49.540;8.390;2023-11-19T04:47:44;10.60;99.90
4695;DHT22;2361;49.540;8.390;2023-11-19T04:50:06;10.60;99.90
4695;DHT22;2361;49.540;8.390;2023-11-19T04:52:32;10.60;99.90
4695;DHT22;2361;49.540;8.390;2023-11-19T04:54:54;10.70;99.90
4695;DHT22;2361;49.540;8.390;2023-11-19T04:57:16;10.80;99.90
4695;DHT22;2361;49.540;8.390;2023-11-19T04:59:38;10.80;99.90
4695;DHT22;2361;49.540;8.390;2023-11-19T05:02:00;10.90;99.90
4695;DHT22;2361;49.540;8.390;2023-11-19T05:04:22;10.90;99.90
4695;DHT22;2361;49.540;8.390;2023-11-19T05:06:44;11.00;99.90
4695;DHT22;2361;49.540;8.390;2023-11-19T05:09:06;11.00;99.90
4695;DHT22;2361;49.540;8.390;2023-11-19T05:11:29;11.10;99.90
4695;DHT22;2361;49.540;8.390;2023-11-19T05:13:51;11.20;99.90
4695;DHT22;2361;49.540;8.390;2023-11-19T05:16:13;11.20;99.90
4695;DHT22;2361;49.540;8.390;2023-11-19T05:18:35;11.30;99.90
4695;DHT22;2361;49.540;8.390;2023-11-19T05:20:57;11.30;99.90
4695;DHT22;2361;49.540;8.390;2023-11-19T05:23:19;11.30;99.90
4695;DHT22;2361;49.540;8.390;2023-11-19T05:25:42;11.30;99.90
4695;DHT22;2361;49.540;8.390;2023-11-19T05:28:04;11.30;99.90
4695;DHT22;2361;49.540;8.390;2023-11-19T05:30:26;11.30;99.90
4695;DHT22;2361;49.540;8.390;2023-11-19T05:32:48;11.30;99.90
4695;DHT22;2361;49.540;8.390;2023-11-19T05:35:11;11.40;99.90
4695;DHT22;2361;49.540;8.390;2023-11-19T05:37:33;11.40;99.90
4695;DHT22;2361;49.540;8.390;2023-11-19T05:39:56;11.50;99.90
4695;DHT22;2361;49.540;8.390;2023-11-19T05:42:18;11.50;99.90
4695;DHT22;2361;49.540;8.390;2023-11-19T05:44:40;11.60;99.90
4695;DHT22;2361;49.540;8.390;2023-11-19T05:47:02;11.60;99.90
4695;DHT22;2361;49.540;8.390;2023-11-19T05:49:25;11.70;99.90
4695;DHT22;2361;49.540;8.390;2023-11-19T05:51:47;11.70;99.90
4695;DHT22;2361;49.540;8.390;2023-11-19T05:54:09;11.80;99.90
4695;DHT22;2361;49.540;8.390;2023-11-19T05:56:32;11.80;99.90
4695;DHT22;2361;49.540;8.390;2023-11-19T05:58:54;11.80;99.90
4695;DHT22;2361;49.540;8.390;2023-11-19T06:01:17;11.80;99.90
4695;DHT22;2361;49.540;8.390;2023-11-19T06:03:40;11.70;99.90
4695;DHT22;2361;49.540;8.390;2023-11-19T06:06:02;11.80;99.90
4695;DHT22;2361;49.540;8.390;2023-11-19T06:08:24;11.70;99.90
4695;DHT22;2361;49.540;8.390;2023-11-19T06:10:48;11.90;99.90
4695;DHT22;2361;49.540;8.390;2023-11-19T06:13:13;11.90;99.90
4695;DHT22;2361;49.540;8.390;2023-11-19T06:15:37;11.90;99.90
4695;DHT22;2361;49.540;8.390;2023-11-19T06:17:59;11.90;99.90
4695;DHT22;2361;49.540;8.390;2023-11-19T06:20:23;12.00;99.90
4695;DHT22;2361;49.540;8.390;2023-11-19T06:22:46;11.90;99.90
4695;DHT22;2361;49.540;8.390;2023-11-19T06:25:08;11.90;99.90
4695;DHT22;2361;49.540;8.390;2023-11-19T06:27:30;11.90;99.90
4695;DHT22;2361;49.540;8.390;2023-11-19T06:29:52;12.00;99.90
4695;DHT22;2361;49.540;8.390;2023-11-19T06:32:14;12.00;99.90
4695;DHT22;2361;49.540;8.390;2023-11-19T06:34:36;12.10;99.90
4695;DHT22;2361;49.540;8.390;2023-11-19T06:37:00;12.10;99.90
4695;DHT22;2361;49.540;8.390;2023-11-19T06:39:24;12.00;99.90
4695;DHT22;2361;49.540;8.390;2023-11-19T06:41:47;12.00;99.90
4695;DHT22;2361;49.540;8.390;2023-11-19T06:44:09;12.00;99.90
4695;DHT22;2361;49.540;8.390;2023-11-19T06:46:32;11.90;99.90
4695;DHT22;2361;49.540;8.390;2023-11-19T06:48:54;11.90;99.90
4695;DHT22;2361;49.540;8.390;2023-11-19T06:51:16;11.90;99.90
4695;DHT22;2361;49.540;8.390;2023-11-19T06:53:38;11.90;99.90
4695;DHT22;2361;49.540;8.390;2023-11-19T06:56:03;11.90;99.90
4695;DHT22;2361;49.540;8.390;2023-11-19T06:58:27;11.90;99.90
4695;DHT22;2361;49.540;8.390;2023-11-19T07:00:49;11.90;99.90
4695;DHT22;2361;49.540;8.390;2023-11-19T07:03:12;11.90;99.90
4695;DHT22;2361;49.540;8.390;2023-11-19T07:05:38;11.90;99.90
4695;DHT22;2361;49.540;8.390;2023-11-19T07:08:00;11.90;99.90
4695;DHT22;2361;49.540;8.390;2023-11-19T07:10:22;12.00;99.90
4695;DHT22;2361;49.540;8.390;2023-11-19T07:12:44;12.10;99.90
4695;DHT22;2361;49.540;8.390;2023-11-19T07:15:07;12.10;99.90
4695;DHT22;2361;49.540;8.390;2023-11-19T07:17:30;12.20;99.90
4695;DHT22;2361;49.540;8.390;2023-11-19T07:19:53;12.20;99.90
4695;DHT22;2361;49.540;8.390;2023-11-19T07:22:15;12.30;99.90
4695;DHT22;2361;49.540;8.390;2023-11-19T07:24:40;12.30;99.90
4695;DHT22;2361;49.540;8.390;2023-11-19T07:27:03;12.40;99.90
4695;DHT22;2361;49.540;8.390;2023-11-19T07:29:25;12.50;99.90
4695;DHT22;2361;49.540;8.390;2023-11-19T07:31:51;12.60;99.90
4695;DHT22;2361;49.540;8.390;2023-11-19T07:34:13;12.80;99.90
4695;DHT22;2361;49.540;8.390;2023-11-19T07:36:35;12.80;99.90
4695;DHT22;2361;49.540;8.390;2023-11-19T07:38:58;12.90;99.90
4695;DHT22;2361;49.540;8.390;2023-11-19T07:41:20;13.00;99.90
4695;DHT22;2361;49.540;8.390;2023-11-19T07:43:45;12.90;99.90
4695;DHT22;2361;49.540;8.390;2023-11-19T07:46:12;13.00;99.90
4695;DHT22;2361;49.540;8.390;2023-11-19T07:48:34;13.00;99.90
4695;DHT22;2361;49.540;8.390;2023-11-19T07:50:57;13.00;99.90
4695;DHT22;2361;49.540;8.390;2023-11-19T07:53:19;13.10;99.90
4695;DHT22;2361;49.540;8.390;2023-11-19T07:55:41;13.10;99.90
4695;DHT22;2361;49.540;8.390;2023-11-19T07:58:03;13.20;99.90
4695;DHT22;2361;49.540;8.390;2023-11-19T08:00:25;13.20;99.90
4695;DHT22;2361;49.540;8.390;2023-11-19T08:02:47;13.20;99.90
4695;DHT22;2361;49.540;8.390;2023-11-19T08:05:09;13.20;99.90
4695;DHT22;2361;49.540;8.390;2023-11-19T08:07:31;13.10;99.90
4695;DHT22;2361;49.540;8.390;2023-11-19T08:09:53;12.90;99.90
4695;DHT22;2361;49.540;8.390;2023-11-19T08:12:16;12.90;99.90
4695;DHT22;2361;49.540;8.390;2023-11-19T08:14:39;12.80;99.90
4695;DHT22;2361;49.540;8.390;2023-11-19T08:17:01;12.70;99.90
4695;DHT22;2361;49.540;8.390;2023-11-19T08:19:23;12.80;99.90
4695;DHT22;2361;49.540;8.390;2023-11-19T08:21:44;12.90;99.90
4695;DHT22;2361;49.540;8.390;2023-11-19T08:24:06;13.40;99.90
4695;DHT22;2361;49.540;8.390;2023-11-19T08:26:28;14.00;99.90
4695;DHT22;2361;49.540;8.390;2023-11-19T08:28:50;14.90;99.90
4695;DHT22;2361;49.540;8.390;2023-11-19T08:31:13;16.20;99.90
4695;DHT22;2361;49.540;8.390;2023-11-19T08:33:35;17.90;99.90
4695;DHT22;2361;49.540;8.390;2023-11-19T08:35:57;19.10;99.90
4695;DHT22;2361;49.540;8.390;2023-11-19T08:38:20;20.10;99.90
4695;DHT22;2361;49.540;8.390;2023-11-19T08:40:44;21.00;99.90
4695;DHT22;2361;49.540;8.390;2023-11-19T08:43:07;21.10;99.90
4695;DHT22;2361;49.540;8.390;2023-11-19T08:45:30;21.10;99.90
4695;DHT22;2361;49.540;8.390;2023-11-19T08:47:53;20.70;99.90
4695;DHT22;2361;49.540;8.390;2023-11-19T08:50:15;19.70;99.90
4695;DHT22;2361;49.540;8.390;2023-11-19T08:52:37;18.30;99.90
4695;DHT22;2361;49.540;8.390;2023-11-19T08:54:59;17.40;99.90
4695;DHT22;2361;49.540;8.390;2023-11-19T08:57:21;16.80;99.90
4695;DHT22;2361;49.540;8.390;2023-11-19T08:59:43;16.50;99.90
4695;DHT22;2361;49.540;8.390;2023-11-19T09:02:07;16.30;99.90
4695;DHT22;2361;49.540;8.390;2023-11-19T09:04:29;16.00;99.90
4695;DHT22;2361;49.540;8.390;2023-11-19T09:06:51;15.90;99.90
4695;DHT22;2361;49.540;8.390;2023-11-19T09:09:14;15.70;99.90
4695;DHT22;2361;49.540;8.390;2023-11-19T09:11:36;15.60;99.90
4695;DHT22;2361;49.540;8.390;2023-11-19T09:13:58;15.40;99.90
4695;DHT22;2361;49.540;8.390;2023-11-19T09:16:20;15.30;99.90
4695;DHT22;2361;49.540;8.390;2023-11-19T09:18:43;15.20;99.90
4695;DHT22;2361;49.540;8.390;2023-11-19T09:21:05;15.10;99.90
4695;DHT22;2361;49.540;8.390;2023-11-19T09:23:27;15.00;99.90
4695;DHT22;2361;49.540;8.390;2023-11-19T09:25:55;14.90;99.90
4695;DHT22;2361;49.540;8.390;2023-11-19T09:28:17;14.90;99.90
4695;DHT22;2361;49.540;8.390;2023-11-19T09:30:38;14.80;99.90
4695;DHT22;2361;49.540;8.390;2023-11-19T09:33:00;14.70;99.90
4695;DHT22;2361;49.540;8.390;2023-11-19T09:35:24;14.60;99.90
4695;DHT22;2361;49.540;8.390;2023-11-19T09:37:48;14.50;99.90
4695;DHT22;2361;49.540;8.390;2023-11-19T09:40:10;14.40;99.90
4695;DHT22;2361;49.540;8.390;2023-11-19T09:42:44;14.30;99.90
4695;DHT22;2361;49.540;8.390;2023-11-19T09:45:13;14.30;99.90
4695;DHT22;2361;49.540;8.390;2023-11-19T09:47:37;14.30;99.90
4695;DHT22;2361;49.540;8.390;2023-11-19T09:49:59;14.30;99.90
4695;DHT22;2361;49.540;8.390;2023-11-19T09:52:21;14.30;99.90
4695;DHT22;2361;49.540;8.390;2023-11-19T09:54:43;14.20;99.90
4695;DHT22;2361;49.540;8.390;2023-11-19T09:57:06;14.20;99.90
4695;DHT22;2361;49.540;8.390;2023-11-19T09:59:31;14.20;99.90
4695;DHT22;2361;49.540;8.390;2023-11-19T10:01:53;14.10;99.90
4695;DHT22;2361;49.540;8.390;2023-11-19T10:04:16;14.10;99.90
4695;DHT22;2361;49.540;8.390;2023-11-19T10:06:39;14.10;99.90
4695;DHT22;2361;49.540;8.390;2023-11-19T10:09:01;14.10;99.90
4695;DHT22;2361;49.540;8.390;2023-11-19T10:11:23;14.10;99.90
4695;DHT22;2361;49.540;8.390;2023-11-19T10:13:45;14.10;99.90
4695;DHT22;2361;49.540;8.390;2023-11-19T10:16:12;14.10;99.90
4695;DHT22;2361;49.540;8.390;2023-11-19T10:18:34;14.20;99.90
4695;DHT22;2361;49.540;8.390;2023-11-19T10:21:02;14.30;99.90
4695;DHT22;2361;49.540;8.390;2023-11-19T10:23:24;14.50;99.90
4695;DHT22;2361;49.540;8.390;2023-11-19T10:25:45;14.50;99.90
4695;DHT22;2361;49.540;8.390;2023-11-19T10:28:07;14.60;99.90
4695;DHT22;2361;49.540;8.390;2023-11-19T10:30:30;14.60;99.90
4695;DHT22;2361;49.540;8.390;2023-11-19T10:33:08;14.70;99.90
4695;DHT22;2361;49.540;8.390;2023-11-19T10:35:53;14.90;99.90
4695;DHT22;2361;49.540;8.390;2023-11-19T10:38:19;15.10;99.90
4695;DHT22;2361;49.540;8.390;2023-11-19T10:40:43;15.20;99.90
4695;DHT22;2361;49.540;8.390;2023-11-19T10:43:06;15.40;99.90
4695;DHT22;2361;49.540;8.390;2023-11-19T10:45:30;15.60;99.90
4695;DHT22;2361;49.540;8.390;2023-11-19T10:47:54;15.70;99.90
4695;DHT22;2361;49.540;8.390;2023-11-19T10:50:17;15.80;99.90
4695;DHT22;2361;49.540;8.390;2023-11-19T10:52:39;15.90;99.90
4695;DHT22;2361;49.540;8.390;2023-11-19T10:55:02;16.00;99.90
4695;DHT22;2361;49.540;8.390;2023-11-19T10:57:30;16.00;99.90
4695;DHT22;2361;49.540;8.390;2023-11-19T11:00:00;16.00;99.90
4695;DHT22;2361;49.540;8.390;2023-11-19T11:02:24;15.90;99.90
4695;DHT22;2361;49.540;8.390;2023-11-19T11:04:50;15.80;99.90
4695;DHT22;2361;49.540;8.390;2023-11-19T11:07:14;15.70;99.90
4695;DHT22;2361;49.540;8.390;2023-11-19T11:09:37;15.60;99.90
4695;DHT22;2361;49.540;8.390;2023-11-19T11:12:01;15.60;99.90
4695;DHT22;2361;49.540;8.390;2023-11-19T11:14:25;15.50;99.90
4695;DHT22;2361;49.540;8.390;2023-11-19T11:16:48;15.50;99.90
4695;DHT22;2361;49.540;8.390;2023-11-19T11:19:11;15.40;99.90
4695;DHT22;2361;49.540;8.390;2023-11-19T11:21:35;15.40;99.90
4695;DHT22;2361;49.540;8.390;2023-11-19T11:38:36;15.70;99.90
4695;DHT22;2361;49.540;8.390;2023-11-19T11:41:29;15.80;99.90
4695;DHT22;2361;49.540;8.390;2023-11-19T11:43:53;15.80;99.90
4695;DHT22;2361;49.540;8.390;2023-11-19T11:49:04;16.00;99.90
4695;DHT22;2361;49.540;8.390;2023-11-19T11:54:08;16.00;99.90
4695;DHT22;2361;49.540;8.390;2023-11-19T11:56:34;16.00;99.90
4695;DHT22;2361;49.540;8.390;2023-11-19T11:58:59;16.00;99.90
4695;DHT22;2361;49.540;8.390;2023-11-19T12:01:22;16.00;99.90
4695;DHT22;2361;49.540;8.390;2023-11-19T12:03:46;16.10;99.90
4695;DHT22;2361;49.540;8.390;2023-11-19T12:06:08;16.00;99.90
4695;DHT22;2361;49.540;8.390;2023-11-19T12:08:30;16.10;99.90
4695;DHT22;2361;49.540;8.390;2023-11-19T12:10:54;16.10;99.90
4695;DHT22;2361;49.540;8.390;2023-11-19T12:13:21;16.10;99.90
4695;DHT22;2361;49.540;8.390;2023-11-19T12:18:19;16.20;99.90
4695;DHT22;2361;49.540;8.390;2023-11-19T12:20:41;16.20;99.90
4695;DHT22;2361;49.540;8.390;2023-11-19T12:23:04;16.20;99.90
4695;DHT22;2361;49.540;8.390;2023-11-19T12:25:34;16.20;99.90
4695;DHT22;2361;49.540;8.390;2023-11-19T12:28:00;16.10;99.90
4695;DHT22;2361;49.540;8.390;2023-11-19T12:30:26;15.90;99.90
4695;DHT22;2361;49.540;8.390;2023-11-19T12:32:48;15.80;99.90
4695;DHT22;2361;49.540;8.390;2023-11-19T12:35:11;15.80;99.90
4695;DHT22;2361;49.540;8.390;2023-11-19T12:37:39;15.80;99.90
4695;DHT22;2361;49.540;8.390;2023-11-19T12:40:10;15.90;99.90
4695;DHT22;2361;49.540;8.390;2023-11-19T12:42:37;15.90;99.90
4695;DHT22;2361;49.540;8.390;2023-11-19T12:45:00;15.90;99.90
4695;DHT22;2361;49.540;8.390;2023-11-19T12:47:22;16.00;99.90
4695;DHT22;2361;49.540;8.390;2023-11-19T12:49:55;16.00;99.90
4695;DHT22;2361;49.540;8.390;2023-11-19T12:52:20;16.00;99.90
4695;DHT22;2361;49.540;8.390;2023-11-19T12:54:44;16.00;99.90
4695;DHT22;2361;49.540;8.390;2023-11-19T12:57:06;16.00;99.90
4695;DHT22;2361;49.540;8.390;2023-11-19T12:59:28;15.90;99.90
4695;DHT22;2361;49.540;8.390;2023-11-19T13:01:57;15.80;99.90
4695;DHT22;2361;49.540;8.390;2023-11-19T13:04:19;15.80;99.90
4695;DHT22;2361;49.540;8.390;2023-11-19T13:06:45;15.80;99.90
4695;DHT22;2361;49.540;8.390;2023-11-19T13:09:29;15.70;99.90
4695;DHT22;2361;49.540;8.390;2023-11-19T13:11:51;15.60;99.90
4695;DHT22;2361;49.540;8.390;2023-11-19T13:14:14;15.50;99.90
4695;DHT22;2361;49.540;8.390;2023-11-19T13:16:37;15.40;99.90
4695;DHT22;2361;49.540;8.390;2023-11-19T13:18:59;15.40;99.90
4695;DHT22;2361;49.540;8.390;2023-11-19T13:21:23;15.40;99.90
4695;DHT22;2361;49.540;8.390;2023-11-19T13:23:45;15.40;99.90
4695;DHT22;2361;49.540;8.390;2023-11-19T13:26:07;15.40;99.90
4695;DHT22;2361;49.540;8.390;2023-11-19T13:28:29;15.30;99.90
4695;DHT22;2361;49.540;8.390;2023-11-19T13:30:51;15.30;99.90
4695;DHT22;2361;49.540;8.390;2023-11-19T13:33:15;15.30;99.90
4695;DHT22;2361;49.540;8.390;2023-11-19T13:35:37;15.30;99.90
4695;DHT22;2361;49.540;8.390;2023-11-19T13:38:00;15.30;99.90
4695;DHT22;2361;49.540;8.390;2023-11-19T13:40:22;15.30;99.90
4695;DHT22;2361;49.540;8.390;2023-11-19T13:42:46;15.40;99.90
4695;DHT22;2361;49.540;8.390;2023-11-19T13:45:12;15.40;99.90
4695;DHT22;2361;49.540;8.390;2023-11-19T13:47:34;15.40;99.90
4695;DHT22;2361;49.540;8.390;2023-11-19T13:49:56;15.50;99.90
4695;DHT22;2361;49.540;8.390;2023-11-19T13:52:18;15.50;99.90
4695;DHT22;2361;49.540;8.390;2023-11-19T13:54:40;15.60;99.90
4695;DHT22;2361;49.540;8.390;2023-11-19T13:57:02;15.70;99.90
4695;DHT22;2361;49.540;8.390;2023-11-19T13:59:25;15.70;99.90
4695;DHT22;2361;49.540;8.390;2023-11-19T14:01:48;15.60;99.90
4695;DHT22;2361;49.540;8.390;2023-11-19T14:04:10;15.60;99.90
4695;DHT22;2361;49.540;8.390;2023-11-19T14:06:32;15.60;99.90
4695;DHT22;2361;49.540;8.390;2023-11-19T14:08:54;15.60;99.90
4695;DHT22;2361;49.540;8.390;2023-11-19T14:11:16;15.70;99.90
4695;DHT22;2361;49.540;8.390;2023-11-19T14:13:41;15.60;99.90
4695;DHT22;2361;49.540;8.390;2023-11-19T14:16:03;15.70;99.90
4695;DHT22;2361;49.540;8.390;2023-11-19T14:18:33;15.80;99.90
4695;DHT22;2361;49.540;8.390;2023-11-19T14:20:59;15.80;99.90
4695;DHT22;2361;49.540;8.390;2023-11-19T14:23:21;15.80;99.90
4695;DHT22;2361;49.540;8.390;2023-11-19T14:25:43;15.90;99.90
4695;DHT22;2361;49.540;8.390;2023-11-19T14:28:05;15.80;99.90
4695;DHT22;2361;49.540;8.390;2023-11-19T14:30:28;15.80;99.90
4695;DHT22;2361;49.540;8.390;2023-11-19T14:32:49;15.80;99.90
4695;DHT22;2361;49.540;8.390;2023-11-19T14:35:12;15.80;99.90
4695;DHT22;2361;49.540;8.390;2023-11-19T14:37:34;15.90;99.90
4695;DHT22;2361;49.540;8.390;2023-11-19T14:39:56;15.90;99.90
4695;DHT22;2361;49.540;8.390;2023-11-19T14:42:19;15.80;99.90
4695;DHT22;2361;49.540;8.390;2023-11-19T14:44:41;15.80;99.90
4695;DHT22;2361;49.540;8.390;2023-11-19T14:47:03;15.80;99.90
4695;DHT22;2361;49.540;8.390;2023-11-19T14:49:25;15.90;99.90
4695;DHT22;2361;49.540;8.390;2023-11-19T14:51:48;15.90;99.90
4695;DHT22;2361;49.540;8.390;2023-11-19T14:54:10;15.80;99.90
4695;DHT22;2361;49.540;8.390;2023-11-19T14:56:32;15.80;99.90
4695;DHT22;2361;49.540;8.390;2023-11-19T14:58:54;15.70;99.90
4695;DHT22;2361;49.540;8.390;2023-11-19T15:01:16;15.60;99.90
4695;DHT22;2361;49.540;8.390;2023-11-19T15:03:38;15.60;99.90
4695;DHT22;2361;49.540;8.390;2023-11-19T15:06:03;15.50;99.90
4695;DHT22;2361;49.540;8.390;2023-11-19T15:08:25;15.50;99.90
4695;DHT22;2361;49.540;8.390;2023-11-19T15:10:47;15.50;99.90
4695;DHT22;2361;49.540;8.390;2023-11-19T15:13:09;15.40;99.90
4695;DHT22;2361;49.540;8.390;2023-11-19T15:15:31;15.20;99.90
4695;DHT22;2361;49.540;8.390;2023-11-19T15:17:56;15.10;99.90
4695;DHT22;2361;49.540;8.390;2023-11-19T15:20:18;15.10;99.90
4695;DHT22;2361;49.540;8.390;2023-11-19T15:22:41;15.00;99.90
4695;DHT22;2361;49.540;8.390;2023-11-19T15:25:03;14.90;99.90
4695;DHT22;2361;49.540;8.390;2023-11-19T15:27:27;14.90;99.90
4695;DHT22;2361;49.540;8.390;2023-11-19T15:29:49;14.80;99.90
4695;DHT22;2361;49.540;8.390;2023-11-19T15:32:11;14.70;99.90
4695;DHT22;2361;49.540;8.390;2023-11-19T15:34:33;14.70;99.90
4695;DHT22;2361;49.540;8.390;2023-11-19T15:36:57;14.70;99.90
4695;DHT22;2361;49.540;8.390;2023-11-19T15:39:19;14.70;99.90
4695;DHT22;2361;49.540;8.390;2023-11-19T15:41:41;14.70;99.90
4695;DHT22;2361;49.540;8.390;2023-11-19T15:44:03;14.70;99.90
4695;DHT22;2361;49.540;8.390;2023-11-19T15:46:25;14.60;99.90
4695;DHT22;2361;49.540;8.390;2023-11-19T15:48:47;14.60;99.90
4695;DHT22;2361;49.540;8.390;2023-11-19T15:51:09;14.60;99.90
4695;DHT22;2361;49.540;8.390;2023-11-19T15:53:31;14.50;99.90
4695;DHT22;2361;49.540;8.390;2023-11-19T15:55:53;14.60;99.90
4695;DHT22;2361;49.540;8.390;2023-11-19T15:58:15;14.60;99.90
4695;DHT22;2361;49.540;8.390;2023-11-19T16:00:37;14.50;99.90